Time;durP1;ratioP1;P1;durP2;ratioP2;P2;SDS_P1;SDS_P2;PMS_P1;PMS_P2;Temp;Humidity;BMP_temperature;BMP_pressure;BME280_temperature;BME280_humidity;BME280_pressure;Samples;Min_cycle;Max_cycle;Signal;HPM_P1;HPM_P2
2022/05/04 00:00:08;;;;;;;959.93;899.50;;;11.20;99.90;;;;;;5033406;28;20568;-69
2022/05/04 00:02:35;;;;;;;949.60;890.00;;;11.10;99.90;;;;;;5048189;28;20622;-69
2022/05/04 00:05:01;;;;;;;960.57;900.00;;;11.10;99.90;;;;;;5032575;28;20683;-70
2022/05/04 00:07:26;;;;;;;953.90;894.30;;;11.10;99.90;;;;;;5033283;28;20202;-69
2022/05/04 00:09:52;;;;;;;928.00;870.63;;;11.10;99.90;;;;;;5034068;28;20312;-70
2022/05/04 00:12:18;;;;;;;928.43;871.30;;;11.00;99.90;;;;;;5032267;28;20187;-69
2022/05/04 00:14:43;;;;;;;907.27;851.73;;;11.00;99.90;;;;;;5032232;28;20646;-69
2022/05/04 00:17:09;;;;;;;899.87;845.17;;;10.90;99.90;;;;;;5033312;28;20564;-69
2022/05/04 00:19:35;;;;;;;895.50;841.37;;;10.90;99.90;;;;;;5035649;28;20269;-70
2022/05/04 00:22:00;;;;;;;879.10;826.30;;;10.90;99.90;;;;;;5042343;28;20647;-70
2022/05/04 00:24:26;;;;;;;848.07;798.13;;;10.90;99.90;;;;;;5044461;28;20297;-71
2022/05/04 00:26:51;;;;;;;855.70;805.07;;;11.00;99.90;;;;;;5033311;28;20217;-71
2022/05/04 00:29:17;;;;;;;789.97;746.67;;;11.00;99.90;;;;;;5048716;28;20191;-70
2022/05/04 00:31:43;;;;;;;766.17;724.77;;;11.00;99.90;;;;;;5032037;28;20529;-70
2022/05/04 00:34:08;;;;;;;734.07;695.80;;;11.10;99.90;;;;;;5031750;28;20252;-70
2022/05/04 00:36:34;;;;;;;697.80;662.47;;;11.10;99.90;;;;;;5023538;28;20600;-70
2022/05/04 00:38:59;;;;;;;587.87;560.73;;;11.00;99.90;;;;;;5017898;28;20195;-70
2022/05/04 00:41:25;;;;;;;591.57;563.70;;;11.10;99.90;;;;;;5031920;28;20187;-70
2022/05/04 00:43:54;;;;;;;616.33;587.30;;;11.20;99.90;;;;;;5034552;28;20221;-70
2022/05/04 00:46:21;;;;;;;555.27;530.17;;;11.10;99.90;;;;;;5036482;28;20197;-71
2022/05/04 00:48:47;;;;;;;522.57;499.60;;;11.10;99.90;;;;;;5037138;28;20187;-70
2022/05/04 00:51:13;;;;;;;549.40;525.00;;;11.00;99.90;;;;;;5069716;28;20662;-70
2022/05/04 00:53:43;;;;;;;497.63;476.20;;;10.90;99.90;;;;;;5052387;28;20185;-71
2022/05/04 00:56:09;;;;;;;473.63;453.07;;;10.90;99.90;;;;;;5019818;28;20235;-71
2022/05/04 00:58:55;;;;;;;487.67;467.03;;;10.90;99.90;;;;;;5036984;28;20182;-70
2022/05/04 01:01:26;;;;;;;503.77;482.27;;;11.00;99.90;;;;;;5035903;28;20237;-70
2022/05/04 01:03:53;;;;;;;539.07;515.13;;;11.00;99.90;;;;;;5036451;28;20268;-70
2022/05/04 01:06:19;;;;;;;493.47;472.20;;;10.90;99.90;;;;;;5036582;28;20268;-71
2022/05/04 01:08:44;;;;;;;546.83;522.67;;;10.90;99.90;;;;;;5037552;28;20640;-70
2022/05/04 01:11:10;;;;;;;494.27;473.20;;;10.90;99.90;;;;;;5054559;28;20288;-70
2022/05/04 01:13:36;;;;;;;478.43;458.27;;;10.90;99.90;;;;;;5051966;28;20552;-70
2022/05/04 01:16:01;;;;;;;496.67;475.53;;;10.80;99.90;;;;;;5082658;28;20552;-70
2022/05/04 01:18:27;;;;;;;503.07;481.37;;;10.80;99.90;;;;;;5053950;28;20643;-70
2022/05/04 01:20:52;;;;;;;511.03;488.80;;;10.90;99.90;;;;;;5067434;28;20236;-71
2022/05/04 01:23:19;;;;;;;502.23;480.23;;;10.80;99.90;;;;;;5043415;28;20222;-71
2022/05/04 01:25:45;;;;;;;500.40;478.87;;;10.80;99.90;;;;;;5036004;28;20562;-71
2022/05/04 01:28:11;;;;;;;547.80;523.47;;;10.80;99.90;;;;;;5036363;28;20194;-70
2022/05/04 01:30:37;;;;;;;553.13;528.53;;;10.80;99.90;;;;;;5051917;28;20199;-71
2022/05/04 01:33:03;;;;;;;564.17;539.00;;;10.80;99.90;;;;;;5045673;28;20194;-70
2022/05/04 01:35:29;;;;;;;553.80;528.97;;;10.70;99.90;;;;;;5022407;28;20281;-71
2022/05/04 01:37:54;;;;;;;591.83;564.57;;;10.60;99.90;;;;;;5041966;28;20291;-71
2022/05/04 01:40:21;;;;;;;629.53;599.80;;;10.70;99.90;;;;;;5035907;28;20187;-71
2022/05/04 01:42:46;;;;;;;623.83;594.40;;;10.60;99.90;;;;;;5036116;28;20202;-71
2022/05/04 01:45:12;;;;;;;615.90;586.53;;;10.50;99.90;;;;;;5036895;28;20651;-70
2022/05/04 01:47:38;;;;;;;660.70;628.47;;;10.50;99.90;;;;;;5052480;28;20186;-71
2022/05/04 01:50:04;;;;;;;701.27;665.50;;;10.40;99.90;;;;;;5042219;28;20187;-71
2022/05/04 01:52:30;;;;;;;695.43;660.33;;;10.40;99.90;;;;;;5036346;28;20182;-71
2022/05/04 01:54:59;;;;;;;765.30;723.80;;;10.30;99.90;;;;;;5035901;28;20253;-70
2022/05/04 01:57:25;;;;;;;790.70;747.07;;;10.20;99.90;;;;;;5043460;28;20209;-70
2022/05/04 01:59:50;;;;;;;786.60;743.27;;;10.20;99.90;;;;;;5036718;28;20206;-71
2022/05/04 02:02:16;;;;;;;815.27;768.87;;;10.20;99.90;;;;;;5034074;28;20191;-70
2022/05/04 02:04:42;;;;;;;830.97;782.80;;;10.20;99.90;;;;;;5035889;28;20210;-70
2022/05/04 02:07:09;;;;;;;843.90;794.63;;;10.20;99.90;;;;;;5035524;28;20181;-70
2022/05/04 02:09:36;;;;;;;852.47;802.17;;;10.10;99.90;;;;;;5044875;28;20197;-70
2022/05/04 02:12:03;;;;;;;867.30;815.67;;;10.10;99.90;;;;;;5034502;28;20194;-70
2022/05/04 02:14:31;;;;;;;899.17;844.53;;;10.00;99.90;;;;;;5035741;28;20658;-70
2022/05/04 02:16:57;;;;;;;907.57;852.13;;;10.00;99.90;;;;;;5032207;28;20200;-70
2022/05/04 02:19:22;;;;;;;933.47;875.63;;;10.00;99.90;;;;;;5038914;28;20269;-70
2022/05/04 02:21:48;;;;;;;947.70;888.67;;;10.00;99.90;;;;;;5034503;28;20670;-70
2022/05/04 02:24:14;;;;;;;956.40;896.53;;;10.00;99.90;;;;;;5034226;28;20214;-70
2022/05/04 02:26:39;;;;;;;976.20;914.10;;;9.90;99.90;;;;;;5043638;28;20186;-71
2022/05/04 02:29:05;;;;;;;988.50;925.10;;;9.90;99.90;;;;;;5035245;28;20190;-71
2022/05/04 02:31:30;;;;;;;998.17;933.87;;;9.90;99.90;;;;;;5033899;28;20218;-70
2022/05/04 02:33:56;;;;;;;1015.33;949.17;;;9.80;99.90;;;;;;5052392;28;20206;-70
2022/05/04 02:39:06;;;;;;;1020.00;952.83;;;9.80;99.90;;;;;;5033895;28;20256;-70
2022/05/04 02:41:32;;;;;;;1028.03;960.23;;;9.80;99.90;;;;;;5033999;28;20190;-70
2022/05/04 02:43:59;;;;;;;1036.97;968.17;;;9.80;99.90;;;;;;5036472;28;20220;-70
2022/05/04 02:46:28;;;;;;;1043.53;973.73;;;9.80;99.90;;;;;;5045475;28;20183;-71
2022/05/04 02:48:54;;;;;;;1050.30;980.20;;;9.70;99.90;;;;;;5043525;28;20189;-70
2022/05/04 02:51:19;;;;;;;1056.90;985.60;;;9.70;99.90;;;;;;5041384;28;20536;-70
2022/05/04 02:53:45;;;;;;;1060.23;988.47;;;9.70;99.90;;;;;;5033529;28;20190;-71
2022/05/04 02:56:13;;;;;;;1052.87;981.20;;;9.70;99.90;;;;;;5035032;28;20182;-72
2022/05/04 02:58:39;;;;;;;1061.50;989.30;;;9.70;99.90;;;;;;5041170;28;20272;-72
2022/05/04 03:04:02;;;;;;;1065.40;992.90;;;9.60;99.90;;;;;;5034385;28;20221;-72
2022/05/04 03:06:28;;;;;;;1062.83;990.23;;;9.60;99.90;;;;;;5033642;28;20198;-68
2022/05/04 03:08:54;;;;;;;1064.17;991.53;;;9.60;99.90;;;;;;5034024;28;20183;-73
2022/05/04 03:14:07;;;;;;;1063.33;991.17;;;9.60;99.90;;;;;;5033777;28;20209;-72
2022/05/04 03:16:36;;;;;;;1063.33;991.10;;;9.50;99.90;;;;;;5034337;28;20210;-71
2022/05/04 03:19:03;;;;;;;1064.70;992.40;;;9.40;99.90;;;;;;5033097;28;20193;-71
2022/05/04 03:21:29;;;;;;;1061.33;989.23;;;9.50;99.90;;;;;;5034064;28;20195;-71
2022/05/04 03:23:54;;;;;;;1060.83;988.40;;;9.40;99.90;;;;;;5034606;28;20577;-72
2022/05/04 03:26:20;;;;;;;1062.07;989.90;;;9.40;99.90;;;;;;5032770;28;20505;-71
2022/05/04 03:28:46;;;;;;;1061.50;989.50;;;9.40;99.90;;;;;;5033936;28;20194;-72
2022/05/04 03:31:12;;;;;;;1058.27;986.33;;;9.40;99.90;;;;;;5034353;28;20222;-71
2022/05/04 03:33:37;;;;;;;1062.57;990.27;;;9.30;99.90;;;;;;5034407;28;20242;-72
2022/05/04 03:36:04;;;;;;;1056.83;985.33;;;9.30;99.90;;;;;;5048174;28;20269;-72
2022/05/04 03:38:29;;;;;;;1052.50;981.40;;;9.30;99.90;;;;;;5043999;28;20190;-71
2022/05/04 03:40:55;;;;;;;1054.00;982.50;;;9.30;99.90;;;;;;5033166;28;20638;-72
2022/05/04 03:43:20;;;;;;;1047.67;977.20;;;9.30;99.90;;;;;;5032657;28;20242;-71
2022/05/04 03:45:46;;;;;;;1034.10;964.93;;;9.20;99.90;;;;;;5033499;28;20221;-71
2022/05/04 03:48:12;;;;;;;1025.43;957.43;;;9.10;99.90;;;;;;5049210;28;20206;-71
2022/05/04 03:50:37;;;;;;;1019.10;952.03;;;9.20;99.90;;;;;;5049720;28;20189;-71
2022/05/04 03:53:03;;;;;;;1013.53;946.97;;;9.10;99.90;;;;;;5041525;28;20525;-71
2022/05/04 03:55:29;;;;;;;1008.70;942.90;;;9.00;99.90;;;;;;5043261;28;20584;-72
2022/05/04 03:57:54;;;;;;;987.83;924.30;;;9.00;99.90;;;;;;5033806;28;20183;-72
2022/05/04 04:00:20;;;;;;;986.60;923.13;;;8.90;99.90;;;;;;5033495;28;20225;-71
2022/05/04 04:02:49;;;;;;;983.40;919.97;;;8.90;99.90;;;;;;5033753;28;20253;-72
2022/05/04 04:05:15;;;;;;;973.17;911.30;;;8.90;99.90;;;;;;5032678;28;20191;-71
2022/05/04 04:07:41;;;;;;;969.10;907.77;;;8.90;99.90;;;;;;5035022;28;20248;-71
2022/05/04 04:10:07;;;;;;;983.60;920.27;;;8.90;99.90;;;;;;5047841;28;20182;-71
2022/05/04 04:12:33;;;;;;;995.03;931.03;;;8.80;99.90;;;;;;5032399;28;20190;-71
2022/05/04 04:14:58;;;;;;;1004.47;939.80;;;8.80;99.90;;;;;;5033607;28;20202;-71
2022/05/04 04:17:24;;;;;;;1019.93;952.83;;;8.90;99.90;;;;;;5049897;28;20216;-71
2022/05/04 04:21:50;;;;;;;1016.63;949.77;;;8.90;99.90;;;;;;5031137;28;20193;-71
2022/05/04 04:22:35;;;;;;;1019.27;952.73;;;8.90;99.90;;;;;;5032031;28;20199;-72
2022/05/04 04:25:02;;;;;;;1031.03;962.53;;;8.90;99.90;;;;;;5032799;28;20206;-71
2022/05/04 04:27:31;;;;;;;1042.73;973.27;;;8.90;99.90;;;;;;5036257;28;20536;-71
2022/05/04 04:29:57;;;;;;;1040.03;970.27;;;8.90;99.90;;;;;;5048414;28;20273;-72
2022/05/04 04:32:22;;;;;;;1036.70;967.57;;;8.90;99.90;;;;;;5047277;28;20281;-71
2022/05/04 04:34:48;;;;;;;1052.33;981.47;;;8.90;99.90;;;;;;5034090;28;20524;-72
2022/05/04 04:37:14;;;;;;;1055.90;984.37;;;8.90;99.90;;;;;;5015717;28;20194;-72
2022/05/04 04:39:40;;;;;;;1072.00;998.33;;;8.90;99.90;;;;;;5032097;28;20178;-71
2022/05/04 04:42:06;;;;;;;1075.70;999.50;;;8.90;99.90;;;;;;5031410;28;20187;-72
2022/05/04 04:44:32;;;;;;;1077.60;999.90;;;8.90;99.90;;;;;;5044359;28;20206;-72
2022/05/04 04:46:58;;;;;;;1084.53;999.90;;;8.90;99.90;;;;;;5051936;28;20200;-65
2022/05/04 04:49:25;;;;;;;1083.77;999.90;;;9.00;99.90;;;;;;5032764;28;20273;-67
2022/05/04 04:51:51;;;;;;;1083.53;999.90;;;9.00;99.90;;;;;;5032680;28;20190;-68
2022/05/04 04:54:17;;;;;;;1087.23;999.90;;;8.90;99.90;;;;;;5032179;28;20237;-68
2022/05/04 04:56:42;;;;;;;1080.57;999.90;;;9.00;99.90;;;;;;5031973;28;20602;-68
2022/05/04 04:59:08;;;;;;;1077.27;999.90;;;9.00;99.90;;;;;;5015237;28;20179;-69
2022/05/04 05:01:34;;;;;;;1084.53;999.90;;;9.10;99.90;;;;;;5039895;28;20201;-68
2022/05/04 05:03:59;;;;;;;1078.97;999.90;;;9.20;99.90;;;;;;5036011;28;20272;-69
2022/05/04 05:06:26;;;;;;;1081.83;999.90;;;9.20;99.90;;;;;;5040815;28;20252;-69
2022/05/04 05:08:51;;;;;;;1080.13;999.90;;;9.20;99.90;;;;;;5025059;28;20385;-68
2022/05/04 05:11:17;;;;;;;1077.40;999.83;;;9.30;99.90;;;;;;5064632;28;20270;-70
2022/05/04 05:16:27;;;;;;;1073.73;998.77;;;9.50;99.90;;;;;;5059540;28;20293;-69
2022/05/04 05:18:53;;;;;;;1073.70;998.60;;;9.60;99.90;;;;;;5060882;28;20227;-68
2022/05/04 05:21:19;;;;;;;1075.37;999.30;;;9.60;99.90;;;;;;5031501;28;20209;-68
2022/05/04 05:23:45;;;;;;;1059.00;986.90;;;9.70;99.90;;;;;;5039565;28;20710;-68
2022/05/04 05:26:14;;;;;;;1063.23;990.60;;;9.70;99.90;;;;;;5043163;28;20545;-67
2022/05/04 05:28:39;;;;;;;1054.90;983.13;;;9.90;99.90;;;;;;5033354;28;20524;-68
2022/05/04 05:31:05;;;;;;;1049.70;978.93;;;10.00;99.90;;;;;;5036867;28;20198;-68
2022/05/04 05:33:31;;;;;;;1032.10;963.13;;;10.00;99.90;;;;;;5036260;28;20206;-68
2022/05/04 05:35:56;;;;;;;1026.70;958.77;;;10.00;99.90;;;;;;5034960;28;20190;-67
2022/05/04 05:38:25;;;;;;;1013.03;946.53;;;10.00;99.90;;;;;;5036352;28;20190;-68
2022/05/04 05:40:51;;;;;;;968.43;906.77;;;10.00;99.90;;;;;;5046153;28;20209;-70
2022/05/04 05:43:16;;;;;;;984.70;921.27;;;10.10;99.90;;;;;;5046081;28;20737;-71
2022/05/04 05:45:42;;;;;;;974.43;912.17;;;9.90;99.90;;;;;;5051344;28;20187;-71
2022/05/04 05:48:08;;;;;;;932.60;873.80;;;10.10;99.90;;;;;;5036016;28;20555;-71
2022/05/04 05:50:36;;;;;;;949.67;890.20;;;10.10;99.90;;;;;;5038049;28;20343;-70
2022/05/04 05:53:03;;;;;;;895.40;840.60;;;10.00;99.90;;;;;;5070012;28;20193;-70
2022/05/04 05:55:30;;;;;;;877.90;824.70;;;10.10;99.90;;;;;;5045748;28;20186;-71
2022/05/04 05:57:56;;;;;;;842.03;791.77;;;10.30;99.90;;;;;;5034035;28;20282;-71
2022/05/04 06:00:21;;;;;;;826.83;778.77;;;10.50;99.90;;;;;;5049677;28;20226;-71
2022/05/04 06:02:47;;;;;;;844.13;794.43;;;10.40;99.90;;;;;;5018753;28;20227;-70
2022/05/04 06:05:13;;;;;;;805.10;759.33;;;10.70;99.90;;;;;;5035703;28;20738;-70
2022/05/04 06:07:39;;;;;;;771.40;729.37;;;10.70;99.90;;;;;;5048404;28;20198;-70
2022/05/04 06:10:05;;;;;;;799.20;754.20;;;10.50;99.90;;;;;;5035708;28;20198;-70
2022/05/04 06:12:31;;;;;;;739.57;700.10;;;10.40;99.90;;;;;;5035856;28;20187;-70
2022/05/04 06:14:57;;;;;;;650.47;618.63;;;10.40;99.90;;;;;;5034834;28;20194;-71
2022/05/04 06:17:23;;;;;;;632.70;602.80;;;10.60;99.90;;;;;;5035506;28;20550;-70
2022/05/04 06:19:48;;;;;;;550.40;525.80;;;10.60;99.90;;;;;;5067820;28;20186;-71
2022/05/04 06:22:15;;;;;;;502.60;481.13;;;10.90;99.90;;;;;;5034038;28;20182;-70
2022/05/04 06:24:40;;;;;;;383.47;368.43;;;10.90;99.90;;;;;;5034054;28;20218;-71
2022/05/04 06:27:06;;;;;;;415.87;398.90;;;10.80;99.90;;;;;;5042990;28;20555;-70
2022/05/04 06:35:04;;;;;;;555.97;531.20;;;11.00;99.90;;;;;;5034536;28;20210;-71
2022/05/04 06:37:30;;;;;;;545.67;521.30;;;11.20;99.90;;;;;;5031222;28;20183;-70
2022/05/04 06:39:56;;;;;;;489.47;468.83;;;11.30;99.90;;;;;;5044264;28;20186;-71
2022/05/04 06:42:22;;;;;;;425.63;408.30;;;11.40;99.90;;;;;;5047259;28;20187;-70
2022/05/04 06:44:48;;;;;;;383.00;367.53;;;11.40;99.90;;;;;;5033650;28;20214;-70
2022/05/04 06:47:13;;;;;;;222.77;214.03;;;11.60;99.90;;;;;;5046579;28;20190;-70
2022/05/04 06:49:39;;;;;;;258.20;248.07;;;11.70;99.90;;;;;;5019117;28;20229;-70
2022/05/04 06:52:06;;;;;;;227.30;218.33;;;11.90;99.90;;;;;;5034965;28;20325;-70
2022/05/04 06:54:31;;;;;;;245.33;235.30;;;11.80;99.90;;;;;;5034547;28;20241;-70
2022/05/04 06:56:57;;;;;;;209.67;201.30;;;11.80;99.90;;;;;;5067030;28;20705;-70
2022/05/04 06:59:23;;;;;;;178.83;171.47;;;12.00;99.90;;;;;;5034440;28;20643;-70
2022/05/04 07:01:49;;;;;;;120.10;114.87;;;11.90;99.90;;;;;;5050236;28;20222;-70
2022/05/04 07:04:14;;;;;;;93.37;89.33;;;11.80;99.90;;;;;;5034822;28;20297;-70
2022/05/04 07:06:40;;;;;;;78.80;75.27;;;11.80;99.90;;;;;;5033808;28;20533;-70
2022/05/04 07:09:06;;;;;;;72.37;68.93;;;12.00;99.90;;;;;;5047723;28;20193;-70
2022/05/04 07:11:32;;;;;;;64.23;61.20;;;12.00;99.90;;;;;;5034783;28;21066;-69
2022/05/04 07:13:58;;;;;;;84.37;80.33;;;11.90;99.90;;;;;;5035745;28;20198;-70
2022/05/04 07:16:24;;;;;;;198.13;189.45;;;12.30;99.90;;;;;;5049767;28;20245;-70
2022/05/04 07:18:49;;;;;;;310.80;298.38;;;12.60;99.90;;;;;;5044688;28;20191;-69
2022/05/04 07:21:15;;;;;;;549.08;524.60;;;13.00;99.90;;;;;;5033417;28;20186;-70
2022/05/04 07:23:41;;;;;;;698.67;663.30;;;13.20;99.90;;;;;;5034609;28;20222;-70
2022/05/04 07:26:06;;;;;;;812.75;766.92;;;13.50;99.90;;;;;;5033348;28;20194;-70
2022/05/04 07:28:32;;;;;;;917.85;861.40;;;13.80;99.90;;;;;;5034107;28;20186;-70
2022/05/04 07:31:00;;;;;;;951.70;891.53;;;14.20;99.90;;;;;;5032545;28;20194;-70
2022/05/04 07:33:26;;;;;;;1044.93;973.97;;;15.30;99.90;;;;;;5034236;28;20191;-70
2022/05/04 07:35:52;;;;;;;1151.05;999.90;;;17.10;99.90;;;;;;5042072;28;20240;-70
2022/05/04 07:38:17;;;;;;;1181.05;999.90;;;18.10;99.90;;;;;;5032457;28;20555;-70
2022/05/04 07:43:27;;;;;;;1192.80;999.90;;;19.40;99.90;;;;;;5034041;28;20225;-70
2022/05/04 07:45:54;;;;;;;1189.70;999.90;;;19.60;99.90;;;;;;5048486;28;20181;-69
2022/05/04 07:48:21;;;;;;;1181.18;999.90;;;19.50;99.90;;;;;;5049147;28;20187;-70
2022/05/04 07:50:47;;;;;;;1184.18;999.90;;;19.40;99.90;;;;;;5065648;28;20292;-70
2022/05/04 07:53:12;;;;;;;1174.40;999.90;;;20.30;99.90;;;;;;5048753;28;20221;-69
2022/05/04 07:55:38;;;;;;;1170.07;999.90;;;21.20;99.90;;;;;;5033984;28;20236;-70
2022/05/04 07:58:04;;;;;;;1181.50;999.90;;;22.40;99.90;;;;;;5043117;28;20242;-70
2022/05/04 08:05:58;;;;;;;1125.95;999.90;;;24.30;99.90;;;;;;5033286;28;20252;-70
2022/05/04 08:08:24;;;;;;;1129.43;999.90;;;25.40;99.90;;;;;;5032683;28;20592;-71
2022/05/04 08:10:50;;;;;;;1140.32;999.90;;;25.30;99.90;;;;;;5037195;28;20190;-71
2022/05/04 08:13:19;;;;;;;1139.88;999.90;;;25.20;99.90;;;;;;5032442;28;20550;-71
2022/05/04 08:15:44;;;;;;;1143.72;999.90;;;25.20;99.90;;;;;;5032109;28;20208;-71
2022/05/04 08:18:10;;;;;;;1123.32;999.90;;;24.40;99.90;;;;;;5048290;28;20281;-71
2022/05/04 08:20:36;;;;;;;1091.72;999.90;;;24.40;99.90;;;;;;5032198;28;20529;-70
2022/05/04 08:23:02;;;;;;;1106.60;999.90;;;24.80;99.90;;;;;;5033577;28;20590;-71
2022/05/04 08:25:27;;;;;;;1113.70;999.90;;;23.60;99.90;;;;;;5032310;28;20257;-71
2022/05/04 08:27:53;;;;;;;1119.65;999.90;;;22.60;99.90;;;;;;5065322;28;20179;-71
2022/05/04 08:30:20;;;;;;;1122.60;999.90;;;23.30;99.90;;;;;;5044571;28;20190;-70
2022/05/04 08:32:47;;;;;;;1119.78;999.90;;;23.40;99.90;;;;;;5023443;28;20187;-70
2022/05/04 08:35:13;;;;;;;1127.60;999.90;;;24.10;99.90;;;;;;5031870;28;20221;-71
2022/05/04 08:37:39;;;;;;;1128.88;999.90;;;24.00;99.90;;;;;;5032335;28;20210;-70
2022/05/04 08:40:05;;;;;;;1123.78;999.90;;;24.80;99.90;;;;;;5033194;28;20178;-71
2022/05/04 08:42:31;;;;;;;1113.40;999.90;;;25.20;99.90;;;;;;5033348;28;20272;-71
2022/05/04 08:44:58;;;;;;;1108.03;999.90;;;25.30;99.90;;;;;;5031696;28;20292;-71
2022/05/04 08:47:28;;;;;;;1087.43;999.90;;;25.80;99.90;;;;;;5048570;28;20208;-71
2022/05/04 08:49:57;;;;;;;1090.57;999.90;;;26.30;99.90;;;;;;5032790;28;20170;-71
2022/05/04 08:52:23;;;;;;;1089.85;999.90;;;26.30;99.90;;;;;;5048646;28;20639;-71
2022/05/04 08:54:53;;;;;;;1084.70;999.90;;;26.30;99.90;;;;;;5032022;28;20280;-71
2022/05/04 08:57:19;;;;;;;1078.60;999.50;;;25.60;99.90;;;;;;5049143;28;20553;-71
2022/05/04 08:59:45;;;;;;;1087.75;999.90;;;25.40;99.90;;;;;;5032886;28;20198;-70
2022/05/04 09:02:11;;;;;;;1084.85;999.90;;;24.50;99.90;;;;;;5065011;28;20186;-71
2022/05/04 09:04:45;;;;;;;1099.38;999.90;;;24.20;99.90;;;;;;5046562;28;20214;-71
2022/05/04 09:07:31;;;;;;;1097.80;999.90;;;24.30;99.90;;;;;;5038126;28;20635;-70
2022/05/04 09:09:57;;;;;;;1100.53;999.90;;;23.70;99.90;;;;;;5035295;28;20200;-71
2022/05/04 09:12:23;;;;;;;1097.70;999.90;;;24.30;99.90;;;;;;5049801;28;20560;-70
2022/05/04 09:14:49;;;;;;;1074.93;998.30;;;23.90;99.90;;;;;;5039255;28;20189;-70
2022/05/04 09:17:16;;;;;;;1054.22;981.42;;;22.60;99.90;;;;;;5055641;28;20178;-70
2022/05/04 09:20:45;;;;;;;1066.05;991.85;;;21.50;99.90;;;;;;5053909;28;20286;-70
2022/05/04 09:22:42;;;;;;;1083.88;999.90;;;20.80;99.90;;;;;;5041134;28;20193;-71
2022/05/04 09:25:16;;;;;;;1096.82;999.90;;;20.30;99.90;;;;;;5053647;28;20305;-70
2022/05/04 09:27:42;;;;;;;1105.75;999.90;;;19.70;99.90;;;;;;5035341;28;20197;-70
2022/05/04 09:30:08;;;;;;;1106.53;999.90;;;19.60;99.90;;;;;;5069244;28;20175;-70
2022/05/04 09:32:41;;;;;;;1112.75;999.90;;;19.20;99.90;;;;;;5056677;28;20182;-70
2022/05/04 09:35:17;;;;;;;1106.43;999.90;;;18.90;99.90;;;;;;5036612;28;20187;-70
2022/05/04 09:46:14;;;;;;;1113.55;999.90;;;17.60;99.90;;;;;;5048719;28;20277;-70
2022/05/04 09:48:40;;;;;;;1099.35;999.90;;;17.50;99.90;;;;;;5038625;28;20265;-70
2022/05/04 09:51:09;;;;;;;1105.18;999.90;;;17.60;99.90;;;;;;5034925;28;20186;-70
2022/05/04 09:53:38;;;;;;;1102.03;999.90;;;17.60;99.90;;;;;;5035823;28;20203;-70
2022/05/04 09:56:04;;;;;;;1100.65;999.90;;;17.80;99.90;;;;;;5041846;28;20596;-71
2022/05/04 09:58:31;;;;;;;1096.65;999.90;;;17.80;99.90;;;;;;5042874;28;20198;-70
2022/05/04 10:01:00;;;;;;;1089.93;999.90;;;17.70;99.90;;;;;;5048893;28;20239;-70
2022/05/04 10:03:26;;;;;;;1075.30;999.38;;;17.50;99.90;;;;;;5046164;28;20245;-69
2022/05/04 10:05:54;;;;;;;1055.75;983.58;;;17.50;99.90;;;;;;5051212;28;20226;-70
2022/05/04 10:08:21;;;;;;;1039.03;969.20;;;17.10;99.90;;;;;;5034532;28;20187;-70
2022/05/04 10:10:48;;;;;;;1025.53;957.28;;;16.70;99.90;;;;;;5042882;28;20186;-70
2022/05/04 10:13:18;;;;;;;1008.05;941.33;;;16.90;99.90;;;;;;5034229;28;20194;-70
2022/05/04 10:15:46;;;;;;;1004.92;938.53;;;17.20;99.90;;;;;;5034257;28;20317;-70
2022/05/04 10:18:26;;;;;;;1002.47;936.65;;;17.30;99.90;;;;;;5034631;28;20192;-70
2022/05/04 10:21:06;;;;;;;989.20;925.13;;;17.30;99.90;;;;;;5035501;28;20183;-69
2022/05/04 10:23:37;;;;;;;991.22;927.20;;;17.50;99.90;;;;;;5035830;28;20672;-70
2022/05/04 10:26:04;;;;;;;992.40;927.83;;;17.70;99.90;;;;;;5044948;28;20182;-70
2022/05/04 10:28:37;;;;;;;1011.92;945.28;;;17.70;99.90;;;;;;5043155;28;20548;-70
2022/05/04 10:31:10;;;;;;;962.47;900.88;;;17.50;99.90;;;;;;5035139;28;20190;-70
2022/05/04 10:33:36;;;;;;;965.78;903.95;;;17.30;99.90;;;;;;5035483;28;20191;-69
2022/05/04 10:36:29;;;;;;;945.58;885.85;;;16.90;99.90;;;;;;5041921;28;20188;-70
2022/05/04 10:39:02;;;;;;;943.92;884.53;;;16.70;99.90;;;;;;5025404;28;20197;-69
2022/05/04 10:41:35;;;;;;;929.67;871.63;;;16.70;99.90;;;;;;5045623;28;20183;-70
2022/05/04 10:44:01;;;;;;;945.30;885.72;;;16.90;99.90;;;;;;5031998;28;20201;-70
2022/05/04 10:46:30;;;;;;;933.58;875.00;;;17.10;99.90;;;;;;5050511;28;20194;-70
2022/05/04 10:49:04;;;;;;;939.70;880.83;;;17.10;99.90;;;;;;5033617;28;20189;-70
2022/05/04 10:51:31;;;;;;;940.40;881.58;;;17.20;99.90;;;;;;5034796;28;20296;-70
2022/05/04 10:54:05;;;;;;;930.85;872.63;;;17.40;99.90;;;;;;5066566;28;20187;-70
2022/05/04 10:56:52;;;;;;;942.90;883.35;;;17.50;99.90;;;;;;5034835;28;20174;-70
2022/05/04 10:59:34;;;;;;;964.63;903.05;;;17.70;99.90;;;;;;5035042;28;20706;-70
2022/05/04 11:02:04;;;;;;;951.30;891.25;;;17.80;99.90;;;;;;5052737;28;20198;-70
2022/05/04 11:04:31;;;;;;;944.17;884.35;;;17.50;99.90;;;;;;5045906;28;20232;-70
2022/05/04 11:06:59;;;;;;;950.75;890.38;;;17.50;99.90;;;;;;5034174;28;20178;-71
2022/05/04 11:09:32;;;;;;;966.70;904.75;;;17.60;99.90;;;;;;5034480;28;20194;-70
2022/05/04 11:12:03;;;;;;;971.45;909.35;;;17.40;99.90;;;;;;5045958;28;20542;-70
2022/05/04 11:14:29;;;;;;;930.50;871.83;;;17.60;99.90;;;;;;5066867;28;20190;-70
2022/05/04 11:16:57;;;;;;;979.28;915.92;;;17.60;99.90;;;;;;5034129;28;20269;-70
2022/05/04 11:19:32;;;;;;;985.35;921.88;;;17.70;99.90;;;;;;5034214;28;20182;-70
2022/05/04 11:21:58;;;;;;;981.20;917.30;;;17.60;99.90;;;;;;5037474;28;20177;-70
2022/05/04 11:24:28;;;;;;;958.20;897.42;;;17.50;99.90;;;;;;5041402;28;20289;-70
2022/05/04 11:26:55;;;;;;;942.58;883.03;;;17.60;99.90;;;;;;5033970;28;20187;-69
2022/05/04 11:29:29;;;;;;;934.47;876.22;;;17.60;99.90;;;;;;5034126;28;20189;-70
2022/05/04 11:32:01;;;;;;;904.30;848.47;;;17.60;99.90;;;;;;5033015;28;20539;-69
2022/05/04 11:34:37;;;;;;;920.83;863.63;;;17.50;99.90;;;;;;5066225;28;20194;-70
2022/05/04 11:37:11;;;;;;;898.65;843.53;;;17.50;99.90;;;;;;5046640;28;20278;-69
2022/05/04 11:39:39;;;;;;;921.33;863.85;;;17.80;99.90;;;;;;5039860;28;20247;-69
2022/05/04 11:42:08;;;;;;;903.33;847.67;;;17.90;99.90;;;;;;5034912;28;20278;-69
2022/05/04 11:44:34;;;;;;;908.03;851.53;;;17.40;99.90;;;;;;5034117;28;20214;-69
2022/05/04 11:47:02;;;;;;;907.10;851.15;;;17.60;99.90;;;;;;5032337;28;20721;-70
2022/05/04 11:49:31;;;;;;;912.00;855.45;;;17.70;99.90;;;;;;5046483;28;20185;-70
2022/05/04 11:51:59;;;;;;;913.97;857.15;;;17.80;99.90;;;;;;5036496;28;20182;-70
2022/05/04 11:54:25;;;;;;;945.25;885.58;;;17.90;99.90;;;;;;5043739;28;20216;-70
2022/05/04 11:56:51;;;;;;;947.88;887.70;;;18.20;99.90;;;;;;5033656;28;20636;-70
2022/05/04 11:59:17;;;;;;;941.92;882.38;;;18.30;99.90;;;;;;5033674;28;20200;-69
2022/05/04 12:01:45;;;;;;;928.22;870.03;;;18.70;99.90;;;;;;5032527;28;20202;-69
2022/05/04 12:04:13;;;;;;;962.70;901.60;;;18.60;99.90;;;;;;5033593;28;20264;-69
2022/05/04 12:06:39;;;;;;;953.40;892.90;;;18.60;99.90;;;;;;5040267;28;20273;-69
2022/05/04 12:09:06;;;;;;;929.22;870.97;;;18.30;99.90;;;;;;5051067;28;20237;-69
2022/05/04 12:11:32;;;;;;;938.22;878.92;;;18.00;99.90;;;;;;5037267;28;20605;-69
2022/05/04 12:13:59;;;;;;;930.15;871.88;;;17.90;99.90;;;;;;5032054;28;20190;-70
2022/05/04 12:16:26;;;;;;;936.85;877.90;;;18.00;99.90;;;;;;5033159;28;20228;-69
2022/05/04 12:18:52;;;;;;;950.45;890.05;;;18.10;99.90;;;;;;5039521;28;20194;-69
2022/05/04 12:21:20;;;;;;;941.72;882.35;;;18.00;99.90;;;;;;5048383;28;20524;-69
2022/05/04 12:23:48;;;;;;;919.63;862.17;;;17.80;99.90;;;;;;5036346;28;20213;-69
2022/05/04 12:26:14;;;;;;;914.47;857.72;;;17.80;99.90;;;;;;5045162;28;20194;-69
2022/05/04 12:28:42;;;;;;;910.33;854.10;;;18.00;99.90;;;;;;5032844;28;20221;-70
2022/05/04 12:33:56;;;;;;;932.25;873.58;;;18.30;99.90;;;;;;5033158;28;20229;-69
2022/05/04 12:36:25;;;;;;;926.50;868.60;;;18.50;99.90;;;;;;5033331;28;20186;-69
2022/05/04 12:38:53;;;;;;;923.85;865.92;;;18.50;99.90;;;;;;5032524;28;20194;-70
2022/05/04 12:41:21;;;;;;;921.00;863.55;;;18.50;99.90;;;;;;5033308;28;20178;-69